createdAt,value
2023-02-11T00:02:52.238Z,79.80
2023-02-11T00:06:00.150Z,79.80
2023-02-11T00:09:06.718Z,79.80
2023-02-11T00:12:12.463Z,79.70
2023-02-11T00:15:18.335Z,79.80
2023-02-11T00:18:22.086Z,79.80
2023-02-11T00:21:29.014Z,79.80
2023-02-11T00:24:33.128Z,79.90
2023-02-11T00:27:41.626Z,80.50
2023-02-11T00:30:45.632Z,79.80
2023-02-11T00:33:51.875Z,79.90
2023-02-11T00:36:55.675Z,79.90
2023-02-11T00:40:01.543Z,79.90
2023-02-11T00:43:08.315Z,80.00
2023-02-11T00:46:14.653Z,80.00
2023-02-11T00:49:20.198Z,80.00
2023-02-11T00:52:27.752Z,80.00
2023-02-11T00:55:31.374Z,80.00
2023-02-11T00:58:39.313Z,80.00
2023-02-11T01:01:43.250Z,79.80
2023-02-11T01:04:49.176Z,79.90
2023-02-11T01:07:52.766Z,80.00
2023-02-11T01:11:00.593Z,80.00
2023-02-11T01:14:06.498Z,79.80
2023-02-11T01:17:12.696Z,80.00
2023-02-11T01:20:20.888Z,80.00
2023-02-11T01:23:27.170Z,80.00
2023-02-11T01:26:31.009Z,80.10
2023-02-11T01:29:39.392Z,80.10
2023-02-11T01:32:43.294Z,80.10
2023-02-11T01:35:50.086Z,80.10
2023-02-11T01:38:54.120Z,80.10
2023-02-11T01:42:00.016Z,80.20
2023-02-11T01:45:25.582Z,80.20
2023-02-11T01:48:36.751Z,80.10
2023-02-11T01:52:04.838Z,80.10
2023-02-11T01:55:27.408Z,80.10
2023-02-11T01:58:37.795Z,80.10
2023-02-11T02:01:52.203Z,80.20
2023-02-11T02:05:01.285Z,80.20
2023-02-11T02:08:15.631Z,80.20
2023-02-11T02:11:19.655Z,80.20
2023-02-11T02:14:26.018Z,80.20
2023-02-11T02:17:42.761Z,80.30
2023-02-11T02:21:24.194Z,80.30
2023-02-11T02:24:51.717Z,80.20
2023-02-11T02:28:04.226Z,80.20
2023-02-11T02:31:36.181Z,80.30
2023-02-11T02:34:51.448Z,80.30
2023-02-11T02:38:02.634Z,80.30
2023-02-11T02:41:12.416Z,80.30
2023-02-11T02:44:16.233Z,80.30
2023-02-11T02:47:22.125Z,80.30
2023-02-11T02:50:32.856Z,80.40
2023-02-11T02:53:48.861Z,80.40
2023-02-11T02:56:57.888Z,80.40
2023-02-11T03:00:15.609Z,80.40
2023-02-11T03:03:30.233Z,80.50
2023-02-11T03:06:47.451Z,80.40
2023-02-11T03:09:56.436Z,80.50
2023-02-11T03:13:04.006Z,80.50
2023-02-11T03:16:11.184Z,80.50
2023-02-11T03:19:21.196Z,80.50
2023-02-11T03:22:29.294Z,80.50
2023-02-11T03:25:41.503Z,80.50
2023-02-11T03:28:52.450Z,80.50
2023-02-11T03:32:05.724Z,80.60
2023-02-11T03:35:13.140Z,80.50
2023-02-11T03:38:24.950Z,80.50
2023-02-11T03:41:30.863Z,80.60
2023-02-11T03:44:42.295Z,80.60
2023-02-11T03:47:51.388Z,80.60
2023-02-11T03:50:58.117Z,80.60
2023-02-11T03:54:07.288Z,80.60
2023-02-11T03:57:13.375Z,80.60
2023-02-11T04:00:17.820Z,80.60
2023-02-11T04:03:23.708Z,80.60
2023-02-11T04:06:27.499Z,80.60
2023-02-11T04:09:36.264Z,80.70
2023-02-11T04:12:40.128Z,80.60
2023-02-11T04:15:48.828Z,80.70
2023-02-11T04:18:52.891Z,80.70
2023-02-11T04:21:58.853Z,80.70
2023-02-11T04:25:04.810Z,80.70
2023-02-11T04:28:10.755Z,80.70
2023-02-11T04:31:14.391Z,80.60
2023-02-11T04:34:20.300Z,80.70
2023-02-11T04:37:24.133Z,80.60
2023-02-11T04:40:31.901Z,80.70
2023-02-11T04:43:35.693Z,80.70
2023-02-11T04:46:41.553Z,80.80
2023-02-11T04:49:45.462Z,80.90
2023-02-11T04:52:51.414Z,80.80
2023-02-11T04:55:56.963Z,80.80
2023-02-11T04:59:03.911Z,80.90
2023-02-11T05:02:07.722Z,80.80
2023-02-11T05:05:13.615Z,80.80
2023-02-11T05:08:17.169Z,80.90
2023-02-11T05:11:26.762Z,80.90
2023-02-11T05:14:30.560Z,80.80
2023-02-11T05:17:36.433Z,80.90
2023-02-11T05:20:40.316Z,80.90
2023-02-11T05:23:46.794Z,80.90
2023-02-11T05:26:52.618Z,81.00
2023-02-11T05:29:58.534Z,81.00
2023-02-11T05:33:02.145Z,81.00
2023-02-11T05:36:10.401Z,81.00
2023-02-11T05:39:14.185Z,80.90
2023-02-11T05:42:22.097Z,81.00
2023-02-11T05:45:25.883Z,81.00
2023-02-11T05:48:32.188Z,81.00
2023-02-11T05:51:36.006Z,81.10
2023-02-11T05:54:41.984Z,81.10
2023-02-11T05:57:47.603Z,81.20
2023-02-11T06:00:53.497Z,81.10
2023-02-11T06:03:57.085Z,81.00
2023-02-11T06:07:03.380Z,81.10
2023-02-11T06:10:08.606Z,81.00
2023-02-11T06:13:17.992Z,81.00
2023-02-11T06:16:21.884Z,81.10
2023-02-11T06:19:27.738Z,81.20
2023-02-11T06:22:31.726Z,81.20
2023-02-11T06:25:38.361Z,81.20
2023-02-11T06:28:44.160Z,81.90
2023-02-11T06:31:50.193Z,81.40
2023-02-11T06:34:54.292Z,81.30
2023-02-11T06:38:00.244Z,81.30
2023-02-11T06:41:03.908Z,81.40
2023-02-11T06:44:11.735Z,81.40
2023-02-11T06:47:15.566Z,81.20
2023-02-11T06:50:21.612Z,81.30
2023-02-11T06:53:25.544Z,81.40
2023-02-11T06:56:31.517Z,81.40
2023-02-11T06:59:37.296Z,81.40
2023-02-11T07:02:43.403Z,81.50
2023-02-11T07:05:47.385Z,81.50
2023-02-11T07:08:53.417Z,81.50
2023-02-11T07:11:56.968Z,81.50
2023-02-11T07:15:05.143Z,81.50
2023-02-11T07:18:08.934Z,81.40
2023-02-11T07:21:17.159Z,81.50
2023-02-11T07:24:20.964Z,81.60
2023-02-11T07:27:26.854Z,81.70
2023-02-11T07:30:32.656Z,81.70
2023-02-11T07:33:39.218Z,81.70
2023-02-11T07:36:44.531Z,81.70
2023-02-11T07:39:50.425Z,81.70
2023-02-11T07:42:54.257Z,81.80
2023-02-11T07:46:05.080Z,81.80
2023-02-11T07:49:08.919Z,81.90
2023-02-11T07:52:14.788Z,81.90
2023-02-11T07:55:18.456Z,81.90
2023-02-11T07:58:24.310Z,81.90
2023-02-11T08:01:30.960Z,82.40
2023-02-11T08:04:36.908Z,81.90
2023-02-11T08:07:40.581Z,81.90
2023-02-11T08:10:46.414Z,81.90
2023-02-11T08:13:50.627Z,81.80
2023-02-11T08:16:58.685Z,81.90
2023-02-11T08:20:02.515Z,81.90
2023-02-11T08:23:08.681Z,82.00
2023-02-11T08:26:13.974Z,82.10
2023-02-11T08:29:19.894Z,82.00
2023-02-11T08:32:25.582Z,81.90
2023-02-11T08:35:32.471Z,82.00
2023-02-11T08:38:36.256Z,81.90
2023-02-11T08:41:42.125Z,82.00
2023-02-11T08:44:45.888Z,82.00
2023-02-11T08:47:53.652Z,82.00
2023-02-11T08:50:58.083Z,82.10
2023-02-11T08:54:03.943Z,82.80
2023-02-11T08:57:07.978Z,82.20
2023-02-11T09:00:15.899Z,82.20
2023-02-11T09:03:21.644Z,82.30
2023-02-11T09:06:29.152Z,82.30
2023-02-11T09:09:32.989Z,82.30
2023-02-11T09:12:38.885Z,82.30
2023-02-11T09:15:42.411Z,82.40
2023-02-11T09:18:50.716Z,82.40
2023-02-11T09:21:54.533Z,82.30
2023-02-11T09:25:00.467Z,82.30
2023-02-11T09:28:04.085Z,82.30
2023-02-11T09:31:11.477Z,82.40
2023-02-11T09:34:17.457Z,82.20
2023-02-11T09:37:23.273Z,82.30
2023-02-11T09:40:27.164Z,82.50
2023-02-11T09:43:38.736Z,82.50
2023-02-11T09:46:44.571Z,82.50
2023-02-11T09:49:55.189Z,82.60
2023-02-11T09:53:03.168Z,82.60
2023-02-11T09:56:13.556Z,82.60
2023-02-11T09:59:19.602Z,82.60
2023-02-11T10:02:30.954Z,82.60
2023-02-11T10:05:53.946Z,82.60
2023-02-11T10:09:09.789Z,82.70
2023-02-11T10:12:28.914Z,82.70
2023-02-11T10:15:43.805Z,82.60
2023-02-11T10:19:07.648Z,83.30
2023-02-11T10:22:22.870Z,82.70
2023-02-11T10:25:28.856Z,82.70
2023-02-11T10:28:38.336Z,82.70
2023-02-11T10:31:45.700Z,82.70
2023-02-11T10:34:52.829Z,82.80
2023-02-11T10:37:58.690Z,82.70
2023-02-11T10:41:04.849Z,82.70
2023-02-11T10:44:09.105Z,82.70
2023-02-11T10:47:20.409Z,82.70
2023-02-11T10:50:26.904Z,82.70
2023-02-11T10:53:35.190Z,82.70
2023-02-11T10:56:42.290Z,83.20
2023-02-11T10:59:49.060Z,82.70
2023-02-11T11:02:58.646Z,82.70
2023-02-11T11:06:07.822Z,82.60
2023-02-11T11:09:29.276Z,82.70
2023-02-11T11:12:42.081Z,82.70
2023-02-11T11:15:46.172Z,82.70
2023-02-11T11:18:53.490Z,82.60
2023-02-11T11:21:57.879Z,82.70
2023-02-11T11:25:05.834Z,82.70
2023-02-11T11:28:21.648Z,82.70
2023-02-11T11:31:31.374Z,82.70
2023-02-11T11:34:39.241Z,82.60
2023-02-11T11:37:45.500Z,82.50
2023-02-11T11:41:21.550Z,82.50
2023-02-11T11:44:31.515Z,82.60
2023-02-11T11:47:41.287Z,82.40
2023-02-11T11:50:51.530Z,82.30
2023-02-11T11:53:59.916Z,82.30
2023-02-11T11:57:16.285Z,82.30
2023-02-11T12:00:23.133Z,82.30
2023-02-11T12:04:01.804Z,82.20
2023-02-11T12:07:19.724Z,82.20
2023-02-11T12:10:49.889Z,82.20
2023-02-11T12:14:13.523Z,82.10
2023-02-11T12:17:31.154Z,82.10
2023-02-11T12:20:47.449Z,82.10
2023-02-11T12:24:07.174Z,82.10
2023-02-11T12:27:19.477Z,82.10
2023-02-11T12:30:46.384Z,82.00
2023-02-11T12:34:08.913Z,81.90
2023-02-11T12:37:27.081Z,82.00
2023-02-11T12:40:39.183Z,81.90
2023-02-11T12:43:46.612Z,81.80
2023-02-11T12:46:59.428Z,81.80
2023-02-11T12:50:14.986Z,81.70
2023-02-11T12:53:44.886Z,81.80
2023-02-11T12:56:55.597Z,81.70
2023-02-11T13:00:04.379Z,81.70
2023-02-11T13:03:19.054Z,81.60
2023-02-11T13:06:29.056Z,81.50
2023-02-11T13:09:43.473Z,81.50
2023-02-11T13:13:03.094Z,81.50
2023-02-11T13:16:22.300Z,81.40
2023-02-11T13:19:33.423Z,81.50
2023-02-11T13:22:45.507Z,81.40
2023-02-11T13:25:54.692Z,81.40
2023-02-11T13:29:17.476Z,81.40
2023-02-11T13:32:21.345Z,81.30
2023-02-11T13:35:34.107Z,81.30
2023-02-11T13:38:39.120Z,81.20
2023-02-11T13:41:50.337Z,81.20
2023-02-11T13:44:56.882Z,81.20
2023-02-11T13:48:05.699Z,81.10
2023-02-11T13:51:13.660Z,81.00
2023-02-11T13:54:29.769Z,80.90
2023-02-11T13:57:39.290Z,80.90
2023-02-11T14:00:48.878Z,80.90
2023-02-11T14:04:32.532Z,81.00
2023-02-11T14:07:53.484Z,80.90
2023-02-11T14:10:58.883Z,80.90
2023-02-11T14:14:19.222Z,80.90
2023-02-11T14:17:31.402Z,80.80
2023-02-11T14:20:38.578Z,80.80
2023-02-11T14:23:45.200Z,80.80
2023-02-11T14:26:54.530Z,80.80
2023-02-11T14:30:12.462Z,80.80
2023-02-11T14:33:52.412Z,81.30
2023-02-11T14:37:07.788Z,80.70
2023-02-11T14:40:30.019Z,80.70
2023-02-11T14:43:39.970Z,80.60
2023-02-11T14:46:47.610Z,80.70
2023-02-11T14:49:52.263Z,80.70
2023-02-11T14:53:02.091Z,80.60
2023-02-11T14:56:19.769Z,80.60
2023-02-11T14:59:25.615Z,80.60
2023-02-11T15:02:33.784Z,80.60
2023-02-11T15:05:39.814Z,80.60
2023-02-11T15:08:45.158Z,80.60
2023-02-11T15:11:54.173Z,80.60
2023-02-11T15:15:01.621Z,80.60
2023-02-11T15:18:09.021Z,80.60
2023-02-11T15:21:13.055Z,80.60
2023-02-11T15:24:28.633Z,80.50
2023-02-11T15:27:43.154Z,80.40
2023-02-11T15:30:49.239Z,80.40
2023-02-11T15:33:53.880Z,80.50
2023-02-11T15:36:59.764Z,80.40
2023-02-11T15:40:09.996Z,80.40
2023-02-11T15:43:17.776Z,80.40
2023-02-11T15:46:23.647Z,80.40
2023-02-11T15:49:29.641Z,80.40
2023-02-11T15:52:33.436Z,80.40
2023-02-11T15:55:43.038Z,80.40
2023-02-11T15:58:50.948Z,80.40
2023-02-11T16:01:59.094Z,80.40
2023-02-11T16:05:08.730Z,80.40
2023-02-11T16:08:25.268Z,80.40
2023-02-11T16:11:32.040Z,80.30
2023-02-11T16:14:40.243Z,80.30
2023-02-11T16:17:45.889Z,80.30
2023-02-11T16:20:52.511Z,80.30
2023-02-11T16:23:58.525Z,80.30
2023-02-11T16:27:06.099Z,80.20
2023-02-11T16:30:26.313Z,80.30
2023-02-11T16:33:32.332Z,80.20
2023-02-11T16:36:35.928Z,80.20
2023-02-11T16:39:41.828Z,80.20
2023-02-11T16:42:45.616Z,80.20
2023-02-11T16:45:53.506Z,80.20
2023-02-11T16:48:57.988Z,80.20
2023-02-11T16:52:07.234Z,80.20
2023-02-11T16:55:11.944Z,80.20
2023-02-11T16:58:17.893Z,80.20
2023-02-11T17:01:23.477Z,80.20
2023-02-11T17:04:33.023Z,80.30
2023-02-11T17:07:37.119Z,80.20
2023-02-11T17:10:43.011Z,80.20
2023-02-11T17:13:48.294Z,80.20
2023-02-11T17:16:56.035Z,80.20
2023-02-11T17:19:59.864Z,80.30
2023-02-11T17:23:05.784Z,80.20
2023-02-11T17:26:09.769Z,80.20
2023-02-11T17:29:17.172Z,80.30
2023-02-11T17:32:22.981Z,80.20
2023-02-11T17:35:29.125Z,80.20
2023-02-11T17:38:32.937Z,80.20
2023-02-11T17:41:39.877Z,80.20
2023-02-11T17:44:45.174Z,80.30
2023-02-11T17:47:52.921Z,80.20
2023-02-11T17:50:56.772Z,80.20
2023-02-11T17:54:04.756Z,80.20
2023-02-11T17:57:08.705Z,80.30
2023-02-11T18:00:16.448Z,80.20
2023-02-11T18:03:22.184Z,80.20
2023-02-11T18:06:28.484Z,80.20
2023-02-11T18:09:32.300Z,80.20
2023-02-11T18:12:38.144Z,80.30
2023-02-11T18:15:42.026Z,80.30
2023-02-11T18:18:49.879Z,80.20
2023-02-11T18:21:53.738Z,80.30
2023-02-11T18:24:59.705Z,80.30
2023-02-11T18:28:03.668Z,80.30
2023-02-11T18:31:10.544Z,80.40
2023-02-11T18:34:16.783Z,80.30
2023-02-11T18:37:22.597Z,80.30
2023-02-11T18:40:26.435Z,80.40
2023-02-11T18:43:33.834Z,80.40
2023-02-11T18:46:37.696Z,80.40
2023-02-11T18:49:45.648Z,80.40
2023-02-11T18:52:49.529Z,80.50
2023-02-11T18:55:55.798Z,80.50
2023-02-11T18:59:00.660Z,80.50
2023-02-11T19:02:06.507Z,80.60
2023-02-11T19:05:12.561Z,80.50
2023-02-11T19:08:18.714Z,80.60
2023-02-11T19:11:43.263Z,80.60
2023-02-11T19:14:49.196Z,80.60
2023-02-11T19:17:53.126Z,80.60
2023-02-11T19:21:00.937Z,80.60
2023-02-11T19:24:08.876Z,80.70
2023-02-11T19:27:14.755Z,80.70
2023-02-11T19:30:18.637Z,80.70
2023-02-11T19:33:24.508Z,80.70
2023-02-11T19:36:31.082Z,80.60
2023-02-11T19:39:36.902Z,80.60
2023-02-11T19:42:40.875Z,80.70
2023-02-11T19:45:46.748Z,80.70
2023-02-11T19:48:50.897Z,80.70
2023-02-11T19:51:58.991Z,80.70
2023-02-11T19:55:02.806Z,80.70
2023-02-11T19:58:08.759Z,80.70
2023-02-11T20:01:14.531Z,80.80
2023-02-11T20:04:20.459Z,80.80
2023-02-11T20:07:26.253Z,80.80
2023-02-11T20:10:32.146Z,80.80
2023-02-11T20:13:37.053Z,80.80
2023-02-11T20:16:48.557Z,80.70
2023-02-11T20:19:53.255Z,80.70
2023-02-11T20:23:00.990Z,80.70
2023-02-11T20:26:07.899Z,80.70
2023-02-11T20:29:13.813Z,80.80
2023-02-11T20:32:17.687Z,81.40
2023-02-11T20:35:23.497Z,80.80
2023-02-11T20:38:29.703Z,80.80
2023-02-11T20:41:39.051Z,80.80
2023-02-11T20:44:43.120Z,80.90
2023-02-11T20:47:48.952Z,80.90
2023-02-11T20:50:52.620Z,80.80
2023-02-11T20:54:00.918Z,80.90
2023-02-11T20:57:04.878Z,80.80
2023-02-11T21:00:12.525Z,80.80
2023-02-11T21:03:16.569Z,80.90
2023-02-11T21:06:23.375Z,80.90
2023-02-11T21:09:31.509Z,80.90
2023-02-11T21:12:38.426Z,81.00
2023-02-11T21:15:42.255Z,81.00
2023-02-11T21:18:48.490Z,81.00
2023-02-11T21:21:52.334Z,81.00
2023-02-11T21:25:00.435Z,81.00
2023-02-11T21:28:04.337Z,81.00
2023-02-11T21:31:18.987Z,81.10
2023-02-11T21:34:22.905Z,81.00
2023-02-11T21:37:28.736Z,81.60
2023-02-11T21:40:34.497Z,81.00
2023-02-11T21:43:40.475Z,81.00
2023-02-11T21:46:44.162Z,81.00
2023-02-11T21:49:50.025Z,81.00
2023-02-11T21:52:53.829Z,81.00
2023-02-11T21:56:07.208Z,81.00
2023-02-11T21:59:13.944Z,81.10
2023-02-11T22:02:19.807Z,81.00
2023-02-11T22:05:23.644Z,81.00
2023-02-11T22:08:32.120Z,81.10
2023-02-11T22:11:38.345Z,81.10
2023-02-11T22:14:44.502Z,81.10
2023-02-11T22:17:48.291Z,81.20
2023-02-11T22:20:59.870Z,81.10
2023-02-11T22:24:03.704Z,81.20
2023-02-11T22:27:11.488Z,81.20
2023-02-11T22:30:15.721Z,81.10
2023-02-11T22:33:21.583Z,81.10
2023-02-11T22:36:26.979Z,81.20
2023-02-11T22:39:32.905Z,81.20
2023-02-11T22:42:38.436Z,81.20
2023-02-11T22:45:44.327Z,81.20
2023-02-11T22:48:48.448Z,81.10
2023-02-11T22:51:54.328Z,81.10
2023-02-11T22:54:59.796Z,81.20
2023-02-11T22:58:08.143Z,81.20
2023-02-11T23:01:12.361Z,81.20
2023-02-11T23:04:20.280Z,81.20
2023-02-11T23:07:24.101Z,81.30
2023-02-11T23:10:29.987Z,81.30
2023-02-11T23:13:37.317Z,81.30
2023-02-11T23:16:43.279Z,81.40
2023-02-11T23:19:47.399Z,81.40
2023-02-11T23:22:53.278Z,81.30
2023-02-11T23:25:57.178Z,81.40
2023-02-11T23:29:05.475Z,81.40
2023-02-11T23:32:09.467Z,81.30
2023-02-11T23:35:21.484Z,81.30
2023-02-11T23:38:25.284Z,81.30
2023-02-11T23:41:31.166Z,81.40
2023-02-11T23:44:36.894Z,81.40
2023-02-11T23:47:43.045Z,81.40
2023-02-11T23:50:47.666Z,81.40
2023-02-11T23:53:55.497Z,81.40
2023-02-11T23:56:59.402Z,81.40
